createdAt,value
2018-09-30T00:01:07.028Z,3.30
2018-09-30T00:03:35.236Z,3.20
2018-09-30T00:06:03.488Z,3.20
2018-09-30T00:08:31.672Z,3.20
2018-09-30T00:10:59.895Z,3.20
2018-09-30T00:13:28.208Z,3.10
2018-09-30T00:15:56.424Z,3.10
2018-09-30T00:18:24.644Z,3.10
2018-09-30T00:20:52.840Z,3.00
2018-09-30T00:23:21.041Z,3.10
2018-09-30T00:25:54.716Z,3.10
2018-09-30T00:28:22.956Z,3.20
2018-09-30T00:30:51.177Z,3.20
2018-09-30T00:33:19.372Z,3.20
2018-09-30T00:35:47.556Z,3.20
2018-09-30T00:38:15.785Z,3.20
2018-09-30T00:40:44.088Z,3.20
2018-09-30T00:43:12.305Z,3.10
2018-09-30T00:45:40.512Z,3.10
2018-09-30T00:48:08.699Z,3.00
2018-09-30T00:50:36.893Z,3.00
2018-09-30T00:53:05.172Z,2.90
2018-09-30T00:55:33.471Z,2.90
2018-09-30T00:58:01.683Z,2.80
2018-09-30T01:00:29.906Z,2.80
2018-09-30T01:02:58.104Z,2.70
2018-09-30T01:05:26.320Z,2.70
2018-09-30T01:07:54.534Z,2.70
2018-09-30T01:10:22.728Z,2.70
2018-09-30T01:12:50.915Z,2.70
2018-09-30T01:15:19.500Z,2.70
2018-09-30T01:17:47.703Z,2.60
2018-09-30T01:20:15.905Z,2.60
2018-09-30T01:22:44.129Z,2.60
2018-09-30T01:25:12.378Z,2.50
2018-09-30T01:27:40.612Z,2.50
2018-09-30T01:30:08.844Z,2.50
2018-09-30T01:32:37.044Z,2.50
2018-09-30T01:35:05.361Z,2.50
2018-09-30T01:37:33.556Z,2.50
2018-09-30T01:40:01.784Z,2.50
2018-09-30T01:42:30.016Z,2.50
2018-09-30T01:44:58.247Z,2.50
2018-09-30T01:47:26.483Z,2.50
2018-09-30T01:49:54.691Z,2.50
2018-09-30T01:52:34.350Z,2.40
2018-09-30T01:55:02.556Z,2.40
2018-09-30T01:57:30.763Z,2.40
2018-09-30T01:59:59.014Z,2.30
2018-09-30T02:02:27.212Z,2.30
2018-09-30T02:04:55.495Z,2.30
2018-09-30T02:07:23.681Z,2.30
2018-09-30T02:09:51.860Z,2.30
2018-09-30T02:12:20.065Z,2.30
2018-09-30T02:14:48.265Z,2.20
2018-09-30T02:17:16.496Z,2.20
2018-09-30T02:19:44.708Z,2.20
2018-09-30T02:22:12.936Z,2.20
2018-09-30T02:24:41.162Z,2.10
2018-09-30T02:27:09.352Z,2.10
2018-09-30T02:29:37.552Z,2.10
2018-09-30T02:32:05.762Z,2.00
2018-09-30T02:34:33.976Z,2.00
2018-09-30T02:37:02.181Z,2.00
2018-09-30T02:39:30.396Z,2.00
2018-09-30T02:41:58.616Z,1.90
2018-09-30T02:44:26.857Z,1.90
2018-09-30T02:46:55.152Z,1.90
2018-09-30T02:49:23.330Z,1.90
2018-09-30T02:51:51.532Z,1.90
2018-09-30T02:54:19.736Z,1.90
2018-09-30T02:56:47.953Z,1.90
2018-09-30T02:59:16.156Z,1.90
2018-09-30T03:01:44.420Z,1.90
2018-09-30T03:04:12.665Z,1.90
2018-09-30T03:06:46.256Z,1.90
2018-09-30T03:09:16.847Z,1.90
2018-09-30T03:11:45.029Z,1.80
2018-09-30T03:14:14.548Z,1.80
2018-09-30T03:16:43.532Z,1.80
2018-09-30T03:19:11.798Z,1.80
2018-09-30T03:21:40.020Z,1.80
2018-09-30T03:24:08.673Z,1.80
2018-09-30T03:26:36.940Z,1.80
2018-09-30T03:29:05.184Z,1.80
2018-09-30T03:31:33.388Z,1.70
2018-09-30T03:34:01.846Z,1.70
2018-09-30T03:36:30.050Z,1.70
2018-09-30T03:38:58.331Z,1.70
2018-09-30T03:41:26.533Z,1.70
2018-09-30T03:43:54.728Z,1.70
2018-09-30T03:46:22.967Z,1.70
2018-09-30T03:48:51.167Z,1.60
2018-09-30T03:51:19.362Z,1.60
2018-09-30T03:53:47.544Z,1.60
2018-09-30T03:56:15.779Z,1.60
2018-09-30T03:58:43.989Z,1.60
2018-09-30T04:01:12.267Z,1.50
2018-09-30T04:03:40.471Z,1.50
2018-09-30T04:06:08.655Z,1.50
2018-09-30T04:08:37.136Z,1.50
2018-09-30T04:11:05.356Z,1.50
2018-09-30T04:13:33.915Z,1.50
2018-09-30T04:16:02.112Z,1.50
2018-09-30T04:18:30.316Z,1.50
2018-09-30T04:20:58.537Z,1.50
2018-09-30T04:23:26.840Z,1.50
2018-09-30T04:25:55.032Z,1.60
2018-09-30T04:28:23.247Z,1.60
2018-09-30T04:30:51.461Z,1.60
2018-09-30T04:33:19.693Z,1.70
2018-09-30T04:35:47.896Z,1.70
2018-09-30T04:38:16.152Z,1.60
2018-09-30T04:40:44.671Z,1.60
2018-09-30T04:43:12.885Z,1.60
2018-09-30T04:45:41.161Z,1.60
2018-09-30T04:48:09.367Z,1.50
2018-09-30T04:50:37.868Z,1.50
2018-09-30T04:53:06.141Z,1.50
2018-09-30T04:55:34.365Z,1.50
2018-09-30T04:58:02.564Z,1.50
2018-09-30T05:00:30.768Z,1.40
2018-09-30T05:02:58.972Z,1.50
2018-09-30T05:05:27.164Z,1.50
2018-09-30T05:07:55.363Z,1.50
2018-09-30T05:10:23.580Z,1.50
2018-09-30T05:12:51.792Z,1.50
2018-09-30T05:15:19.986Z,1.50
2018-09-30T05:17:48.219Z,1.50
2018-09-30T05:20:16.431Z,1.50
2018-09-30T05:22:44.664Z,1.50
2018-09-30T05:25:12.887Z,1.50
2018-09-30T05:27:41.131Z,1.50
2018-09-30T05:30:09.338Z,1.50
2018-09-30T05:32:37.524Z,1.60
2018-09-30T05:35:05.957Z,1.60
2018-09-30T05:37:34.165Z,1.60
2018-09-30T05:40:02.352Z,1.70
2018-09-30T05:42:30.622Z,1.70
2018-09-30T05:44:59.003Z,1.70
2018-09-30T05:47:27.287Z,1.80
2018-09-30T05:49:55.500Z,1.90
2018-09-30T05:52:23.709Z,2.00
2018-09-30T05:54:51.900Z,2.00
2018-09-30T05:57:20.100Z,2.10
2018-09-30T05:59:48.376Z,2.10
2018-09-30T06:02:16.636Z,2.10
2018-09-30T06:04:44.884Z,2.10
2018-09-30T06:07:13.095Z,2.10
2018-09-30T06:09:41.578Z,2.20
2018-09-30T06:12:09.837Z,2.20
2018-09-30T06:14:38.909Z,2.20
2018-09-30T06:17:07.111Z,2.20
2018-09-30T06:19:35.311Z,2.20
2018-09-30T06:22:03.602Z,2.30
2018-09-30T06:24:31.882Z,2.30
2018-09-30T06:27:00.169Z,2.40
2018-09-30T06:29:28.474Z,2.40
2018-09-30T06:31:57.180Z,2.50
2018-09-30T06:34:25.355Z,2.60
2018-09-30T06:36:53.540Z,2.60
2018-09-30T06:39:21.824Z,2.70
2018-09-30T06:41:50.055Z,2.80
2018-09-30T06:44:18.596Z,2.90
2018-09-30T06:46:46.797Z,2.90
2018-09-30T06:49:15.081Z,3.10
2018-09-30T06:51:43.328Z,3.10
2018-09-30T06:54:11.804Z,3.30
2018-09-30T06:56:40.009Z,3.40
2018-09-30T06:59:08.520Z,3.50
2018-09-30T07:01:36.720Z,3.70
2018-09-30T07:04:04.985Z,3.80
2018-09-30T07:06:33.168Z,3.90
2018-09-30T07:09:01.636Z,4.10
2018-09-30T07:11:29.964Z,4.20
2018-09-30T07:13:58.152Z,4.40
2018-09-30T07:16:26.372Z,4.50
2018-09-30T07:18:54.587Z,4.70
2018-09-30T07:21:22.812Z,4.90
2018-09-30T07:23:51.022Z,5.10
2018-09-30T07:26:19.216Z,5.40
2018-09-30T07:28:47.401Z,5.60
2018-09-30T07:31:15.720Z,5.80
2018-09-30T07:33:48.776Z,6.00
2018-09-30T07:36:16.941Z,6.20
2018-09-30T07:38:45.159Z,6.40
2018-09-30T07:41:13.430Z,6.60
2018-09-30T07:43:41.672Z,6.90
2018-09-30T07:46:09.876Z,7.10
2018-09-30T07:48:38.099Z,7.30
2018-09-30T07:51:06.283Z,7.50
2018-09-30T07:53:34.495Z,7.70
2018-09-30T07:56:02.699Z,7.80
2018-09-30T07:58:30.915Z,8.10
2018-09-30T08:01:00.191Z,8.30
2018-09-30T08:03:28.458Z,8.50
2018-09-30T08:05:56.669Z,8.60
2018-09-30T08:08:24.909Z,8.80
2018-09-30T08:10:53.121Z,8.90
2018-09-30T08:13:21.412Z,9.10
2018-09-30T08:15:49.667Z,9.30
2018-09-30T08:18:17.892Z,9.30
2018-09-30T08:20:46.219Z,9.50
2018-09-30T08:23:14.651Z,9.60
2018-09-30T08:25:42.887Z,9.70
2018-09-30T08:28:11.118Z,9.80
2018-09-30T08:30:39.378Z,9.90
2018-09-30T08:33:07.572Z,10.00
2018-09-30T08:35:35.801Z,10.20
2018-09-30T08:38:09.608Z,10.30
2018-09-30T08:40:43.341Z,10.40
2018-09-30T08:43:11.548Z,10.50
2018-09-30T08:45:39.811Z,10.60
2018-09-30T08:48:08.029Z,10.70
2018-09-30T08:50:36.268Z,10.80
2018-09-30T08:53:04.511Z,10.90
2018-09-30T08:55:32.776Z,11.00
2018-09-30T08:58:00.991Z,11.10
2018-09-30T09:00:29.217Z,11.20
2018-09-30T09:02:57.484Z,11.30
2018-09-30T09:05:25.667Z,11.30
2018-09-30T09:07:53.890Z,11.40
2018-09-30T09:10:22.337Z,11.50
2018-09-30T09:12:50.592Z,11.60
2018-09-30T09:15:18.917Z,11.60
2018-09-30T09:17:47.111Z,11.70
2018-09-30T09:20:15.382Z,11.80
2018-09-30T09:22:43.676Z,11.80
2018-09-30T09:25:11.952Z,11.90
2018-09-30T09:27:40.342Z,12.00
2018-09-30T09:30:08.872Z,12.10
2018-09-30T09:32:38.247Z,12.20
2018-09-30T09:35:08.326Z,12.20
2018-09-30T09:37:37.372Z,12.30
2018-09-30T09:40:06.852Z,12.30
2018-09-30T09:42:35.056Z,12.40
2018-09-30T09:45:03.323Z,12.50
2018-09-30T09:47:31.860Z,12.50
2018-09-30T09:50:00.280Z,12.60
2018-09-30T09:52:28.545Z,12.70
2018-09-30T09:54:56.817Z,12.80
2018-09-30T09:57:25.076Z,12.80
2018-09-30T09:59:53.268Z,12.90
2018-09-30T10:02:21.496Z,13.00
2018-09-30T10:04:49.776Z,13.10
2018-09-30T10:07:18.017Z,13.10
2018-09-30T10:09:46.240Z,13.20
2018-09-30T10:12:14.475Z,13.30
2018-09-30T10:14:42.720Z,13.40
2018-09-30T10:17:10.936Z,13.40
2018-09-30T10:19:39.239Z,13.50
2018-09-30T10:22:07.468Z,13.60
2018-09-30T10:24:35.664Z,13.70
2018-09-30T10:27:04.347Z,13.70
2018-09-30T10:29:32.620Z,13.80
2018-09-30T10:32:00.833Z,13.90
2018-09-30T10:34:29.040Z,14.00
2018-09-30T10:36:57.273Z,14.00
2018-09-30T10:39:25.484Z,14.10
2018-09-30T10:41:53.724Z,14.20
2018-09-30T10:44:21.928Z,14.30
2018-09-30T10:46:50.160Z,14.30
2018-09-30T10:49:18.496Z,14.40
2018-09-30T10:51:47.795Z,14.50
2018-09-30T10:54:16.058Z,14.60
2018-09-30T10:56:44.421Z,14.60
2018-09-30T10:59:13.048Z,14.70
2018-09-30T11:01:41.350Z,14.70
2018-09-30T11:04:09.645Z,14.70
2018-09-30T11:06:37.876Z,14.90
2018-09-30T11:09:06.751Z,14.90
2018-09-30T11:11:34.976Z,14.90
2018-09-30T11:14:03.416Z,15.00
2018-09-30T11:16:31.768Z,15.10
2018-09-30T11:18:59.968Z,15.20
2018-09-30T11:21:28.180Z,15.30
2018-09-30T11:23:56.382Z,15.40
2018-09-30T11:26:24.689Z,15.50
2018-09-30T11:28:52.907Z,15.60
2018-09-30T11:31:21.113Z,15.70
2018-09-30T11:33:49.311Z,15.70
2018-09-30T11:36:17.616Z,15.70
2018-09-30T11:38:45.835Z,15.80
2018-09-30T11:41:14.095Z,15.90
2018-09-30T11:43:42.335Z,16.00
2018-09-30T11:46:10.557Z,16.10
2018-09-30T11:48:38.765Z,16.20
2018-09-30T11:51:07.560Z,16.30
2018-09-30T11:53:35.810Z,16.40
2018-09-30T11:56:04.069Z,16.50
2018-09-30T11:58:32.356Z,16.50
2018-09-30T12:01:00.579Z,16.50
2018-09-30T12:03:28.822Z,16.60
2018-09-30T12:05:57.036Z,16.60
2018-09-30T12:08:25.338Z,16.60
2018-09-30T12:10:53.576Z,16.70
2018-09-30T12:13:21.790Z,16.70
2018-09-30T12:15:49.997Z,16.70
2018-09-30T12:18:18.539Z,16.80
2018-09-30T12:20:46.887Z,16.90
2018-09-30T12:23:15.246Z,16.90
2018-09-30T12:25:44.156Z,17.00
2018-09-30T12:28:13.173Z,17.00
2018-09-30T12:30:43.062Z,17.10
2018-09-30T12:35:53.483Z,17.20
2018-09-30T12:38:21.667Z,17.30
2018-09-30T12:40:49.840Z,17.40
2018-09-30T12:43:18.203Z,17.40
2018-09-30T12:45:46.394Z,17.40
2018-09-30T12:48:14.591Z,17.50
2018-09-30T12:50:42.784Z,17.50
2018-09-30T12:53:11.368Z,17.50
2018-09-30T12:55:39.581Z,17.60
2018-09-30T12:58:07.837Z,17.70
2018-09-30T13:00:36.016Z,17.70
2018-09-30T13:03:04.253Z,17.80
2018-09-30T13:05:32.502Z,17.90
2018-09-30T13:08:01.032Z,17.90
2018-09-30T13:10:29.228Z,18.00
2018-09-30T13:12:58.903Z,18.10
2018-09-30T13:15:27.512Z,18.10
2018-09-30T13:17:55.724Z,18.10
2018-09-30T13:20:24.018Z,18.20
2018-09-30T13:22:52.293Z,18.20
2018-09-30T13:25:20.511Z,18.20
2018-09-30T13:27:48.741Z,18.20
2018-09-30T13:30:16.976Z,18.30
2018-09-30T13:32:45.196Z,18.30
2018-09-30T13:35:13.399Z,18.30
2018-09-30T13:37:41.627Z,18.40
2018-09-30T13:40:10.018Z,18.50
2018-09-30T13:42:38.142Z,18.60
2018-09-30T13:45:07.483Z,18.60
2018-09-30T13:47:35.696Z,18.70
2018-09-30T13:50:04.009Z,18.70
2018-09-30T13:52:32.236Z,18.70
2018-09-30T13:55:00.455Z,18.70
2018-09-30T13:57:28.667Z,18.80
2018-09-30T13:59:56.879Z,18.80
2018-09-30T14:02:25.095Z,18.80
2018-09-30T14:04:53.303Z,18.90
2018-09-30T14:07:21.517Z,18.90
2018-09-30T14:09:49.848Z,18.90
2018-09-30T14:12:18.067Z,18.90
2018-09-30T14:14:47.160Z,18.90
2018-09-30T14:17:15.359Z,18.90
2018-09-30T14:19:43.580Z,19.00
2018-09-30T14:22:11.787Z,19.00
2018-09-30T14:24:39.968Z,19.00
2018-09-30T14:27:08.235Z,19.10
2018-09-30T14:29:36.431Z,19.10
2018-09-30T14:32:04.675Z,19.10
2018-09-30T14:34:32.894Z,19.20
2018-09-30T14:37:01.143Z,19.20
2018-09-30T14:39:29.355Z,19.20
2018-09-30T14:41:57.587Z,19.30
2018-09-30T14:44:26.118Z,19.30
2018-09-30T14:46:54.356Z,19.30
2018-09-30T14:49:22.611Z,19.30
2018-09-30T14:51:50.878Z,19.30
2018-09-30T14:54:19.791Z,19.30
2018-09-30T14:56:47.968Z,19.30
2018-09-30T14:59:16.171Z,19.40
2018-09-30T15:01:44.379Z,19.40
2018-09-30T15:04:12.602Z,19.40
2018-09-30T15:06:41.009Z,19.30
2018-09-30T15:09:10.973Z,19.30
2018-09-30T15:11:39.268Z,19.30
2018-09-30T15:14:07.548Z,19.30
2018-09-30T15:16:36.032Z,19.20
2018-09-30T15:19:05.066Z,19.20
2018-09-30T15:21:33.319Z,19.10
2018-09-30T15:24:01.787Z,19.10
2018-09-30T15:26:29.988Z,19.10
2018-09-30T15:28:58.264Z,19.10
2018-09-30T15:31:26.677Z,19.10
2018-09-30T15:33:54.948Z,19.00
2018-09-30T15:36:23.271Z,19.10
2018-09-30T15:38:51.551Z,19.10
2018-09-30T15:41:19.775Z,19.10
2018-09-30T15:43:48.285Z,19.10
2018-09-30T15:46:16.499Z,19.10
2018-09-30T15:48:44.775Z,19.00
2018-09-30T15:51:12.996Z,19.00
2018-09-30T15:53:41.274Z,19.00
2018-09-30T15:56:09.801Z,19.00
2018-09-30T15:58:38.099Z,19.00
2018-09-30T16:01:06.275Z,18.90
2018-09-30T16:03:34.537Z,18.90
2018-09-30T16:06:02.767Z,18.80
2018-09-30T16:08:30.958Z,18.80
2018-09-30T16:10:59.304Z,18.70
2018-09-30T16:13:27.498Z,18.60
2018-09-30T16:15:55.705Z,18.50
2018-09-30T16:18:23.951Z,18.30
2018-09-30T16:20:52.135Z,18.20
2018-09-30T16:23:20.353Z,18.10
2018-09-30T16:25:48.602Z,18.00
2018-09-30T16:28:16.822Z,17.80
2018-09-30T16:30:45.012Z,17.80
2018-09-30T16:33:13.320Z,17.60
2018-09-30T16:35:41.600Z,17.50
2018-09-30T16:38:09.981Z,17.30
2018-09-30T16:40:38.551Z,17.20
2018-09-30T16:43:06.882Z,17.10
2018-09-30T16:45:35.088Z,16.90
2018-09-30T16:48:04.033Z,16.80
2018-09-30T16:50:32.482Z,16.60
2018-09-30T16:53:00.643Z,16.50
2018-09-30T16:55:28.856Z,16.30
2018-09-30T16:57:57.093Z,16.10
2018-09-30T17:00:25.296Z,15.90
2018-09-30T17:02:53.729Z,15.70
2018-09-30T17:05:21.952Z,15.50
2018-09-30T17:07:50.395Z,15.20
2018-09-30T17:10:18.688Z,15.00
2018-09-30T17:12:46.906Z,14.80
2018-09-30T17:15:15.284Z,14.50
2018-09-30T17:17:43.989Z,14.40
2018-09-30T17:20:12.204Z,14.20
2018-09-30T17:22:40.627Z,14.00
2018-09-30T17:25:08.827Z,13.80
2018-09-30T17:27:37.016Z,13.60
2018-09-30T17:30:05.352Z,13.50
2018-09-30T17:32:33.552Z,13.30
2018-09-30T17:35:01.888Z,13.10
2018-09-30T17:37:30.137Z,13.00
2018-09-30T17:39:58.552Z,12.90
2018-09-30T17:42:26.760Z,12.80
2018-09-30T17:47:32.576Z,12.60
2018-09-30T17:50:00.779Z,12.40
2018-09-30T17:52:29.035Z,12.30
2018-09-30T17:54:57.255Z,12.20
2018-09-30T17:57:25.524Z,12.10
2018-09-30T17:59:53.732Z,12.00
2018-09-30T18:02:21.943Z,11.90
2018-09-30T18:04:50.180Z,11.80
2018-09-30T18:07:18.432Z,11.70
2018-09-30T18:09:46.640Z,11.60
2018-09-30T18:12:14.848Z,11.50
2018-09-30T18:14:43.118Z,11.40
2018-09-30T18:17:11.347Z,11.40
2018-09-30T18:19:39.572Z,11.30
2018-09-30T18:22:07.892Z,11.20
2018-09-30T18:24:36.144Z,11.10
2018-09-30T18:27:04.386Z,11.10
2018-09-30T18:29:32.651Z,11.00
2018-09-30T18:32:00.955Z,10.90
2018-09-30T18:34:29.207Z,10.90
2018-09-30T18:36:57.521Z,10.80
2018-09-30T18:39:25.740Z,10.70
2018-09-30T18:41:53.956Z,10.60
2018-09-30T18:44:22.168Z,10.60
2018-09-30T18:46:50.388Z,10.50
2018-09-30T18:49:18.600Z,10.50
2018-09-30T18:51:47.079Z,10.40
2018-09-30T18:54:15.408Z,10.40
2018-09-30T18:56:43.641Z,10.40
2018-09-30T18:59:12.017Z,10.30
2018-09-30T19:01:40.374Z,10.30
2018-09-30T19:04:08.585Z,10.40
2018-09-30T19:06:37.078Z,10.40
2018-09-30T19:09:07.365Z,10.40
2018-09-30T19:11:35.611Z,10.50
2018-09-30T19:14:03.808Z,10.50
2018-09-30T19:16:32.228Z,10.60
2018-09-30T19:19:00.469Z,10.60
2018-09-30T19:21:28.766Z,10.70
2018-09-30T19:23:57.025Z,10.80
2018-09-30T19:26:25.229Z,10.80
2018-09-30T19:28:53.453Z,10.90
2018-09-30T19:31:21.734Z,10.90
2018-09-30T19:33:49.872Z,10.90
2018-09-30T19:36:18.147Z,10.80
2018-09-30T19:38:46.379Z,10.70
2018-09-30T19:41:14.624Z,10.60
2018-09-30T19:43:42.875Z,10.50
2018-09-30T19:46:11.168Z,10.40
2018-09-30T19:48:39.535Z,10.30
2018-09-30T19:51:07.709Z,10.20
2018-09-30T19:53:35.948Z,10.10
2018-09-30T19:56:04.266Z,10.00
2018-09-30T19:58:32.456Z,9.90
2018-09-30T20:01:00.690Z,9.80
2018-09-30T20:03:28.948Z,9.70
2018-09-30T20:05:57.780Z,9.70
2018-09-30T20:08:25.981Z,9.60
2018-09-30T20:10:54.207Z,9.50
2018-09-30T20:13:22.433Z,9.50
2018-09-30T20:15:50.669Z,9.40
2018-09-30T20:18:18.927Z,9.40
2018-09-30T20:20:47.230Z,9.30
2018-09-30T20:23:15.414Z,9.20
2018-09-30T20:25:43.612Z,9.20
2018-09-30T20:28:11.873Z,9.20
2018-09-30T20:30:40.079Z,9.10
2018-09-30T20:33:08.412Z,9.00
2018-09-30T20:35:36.760Z,9.00
2018-09-30T20:38:05.052Z,8.90
2018-09-30T20:40:36.742Z,8.90
2018-09-30T20:43:04.909Z,8.80
2018-09-30T20:45:33.116Z,8.70
2018-09-30T20:48:01.338Z,8.70
2018-09-30T20:50:29.628Z,8.70
2018-09-30T20:52:57.836Z,8.60
2018-09-30T20:55:26.241Z,8.60
2018-09-30T20:57:54.773Z,8.60
2018-09-30T21:00:23.137Z,8.50
2018-09-30T21:02:51.375Z,8.50
2018-09-30T21:05:36.308Z,8.40
2018-09-30T21:08:04.513Z,8.40
2018-09-30T21:10:32.737Z,8.30
2018-09-30T21:13:01.024Z,8.30
2018-09-30T21:15:29.269Z,8.30
2018-09-30T21:17:57.512Z,8.30
2018-09-30T21:20:25.796Z,8.20
2018-09-30T21:22:53.991Z,8.20
2018-09-30T21:25:22.375Z,8.10
2018-09-30T21:27:50.607Z,8.10
2018-09-30T21:30:18.818Z,8.10
2018-09-30T21:32:47.086Z,8.10
2018-09-30T21:35:15.287Z,8.10
2018-09-30T21:37:43.823Z,8.10
2018-09-30T21:40:12.166Z,8.10
2018-09-30T21:42:40.371Z,8.20
2018-09-30T21:45:08.596Z,8.20
2018-09-30T21:47:36.808Z,8.20
2018-09-30T21:50:05.096Z,8.30
2018-09-30T21:52:33.335Z,8.20
2018-09-30T21:55:01.916Z,8.20
2018-09-30T21:57:30.159Z,8.20
2018-09-30T21:59:58.473Z,8.20
2018-09-30T22:02:26.672Z,8.10
2018-09-30T22:04:54.864Z,8.10
2018-09-30T22:07:23.543Z,8.10
2018-09-30T22:09:51.742Z,8.00
2018-09-30T22:12:19.984Z,8.00
2018-09-30T22:14:48.196Z,8.00
2018-09-30T22:17:16.396Z,7.90
2018-09-30T22:19:44.715Z,7.90
2018-09-30T22:22:12.940Z,7.90
2018-09-30T22:24:41.244Z,7.90
2018-09-30T22:27:09.555Z,7.90
2018-09-30T22:29:37.756Z,7.90
2018-09-30T22:32:06.089Z,7.90
2018-09-30T22:34:34.301Z,7.90
2018-09-30T22:37:02.881Z,7.90
2018-09-30T22:39:31.107Z,7.90
2018-09-30T22:41:59.392Z,7.90
2018-09-30T22:44:27.674Z,7.80
2018-09-30T22:46:55.871Z,7.80
2018-09-30T22:49:24.100Z,7.80
2018-09-30T22:51:52.304Z,7.80
2018-09-30T22:54:20.536Z,7.80
2018-09-30T22:56:48.776Z,7.80
2018-09-30T22:59:17.003Z,7.70
2018-09-30T23:01:45.234Z,7.70
2018-09-30T23:04:13.485Z,7.70
2018-09-30T23:06:41.756Z,7.70
2018-09-30T23:09:10.081Z,7.60
2018-09-30T23:11:38.484Z,7.60
2018-09-30T23:14:07.040Z,7.60
2018-09-30T23:16:35.404Z,7.60
2018-09-30T23:19:03.605Z,7.60
2018-09-30T23:21:31.857Z,7.60
2018-09-30T23:24:00.097Z,7.70
2018-09-30T23:26:28.329Z,7.70
2018-09-30T23:28:56.991Z,7.80
2018-09-30T23:31:25.183Z,7.80
2018-09-30T23:33:53.402Z,7.90
2018-09-30T23:36:21.666Z,8.00
2018-09-30T23:38:49.836Z,8.00
2018-09-30T23:41:18.099Z,8.10
2018-09-30T23:43:46.389Z,8.10
2018-09-30T23:46:14.688Z,8.20
2018-09-30T23:48:42.900Z,8.20
2018-09-30T23:51:11.104Z,8.30
2018-09-30T23:53:39.304Z,8.30
2018-09-30T23:56:07.792Z,8.40
2018-09-30T23:58:36.005Z,8.50
